sensor_id;sensor_type;location;lat;lon;timestamp;P1;durP1;ratioP1;P2;durP2;ratioP2
46308;SDS011;32037;50.820;6.494;2024-01-15T00:01:12;7.75;;;4.07;;
46308;SDS011;32037;50.820;6.494;2024-01-15T00:03:41;8.63;;;4.95;;
46308;SDS011;32037;50.820;6.494;2024-01-15T00:06:13;11.13;;;5.68;;
46308;SDS011;32037;50.820;6.494;2024-01-15T00:08:41;11.52;;;5.53;;
46308;SDS011;32037;50.820;6.494;2024-01-15T00:11:09;10.20;;;6.15;;
46308;SDS011;32037;50.820;6.494;2024-01-15T00:13:37;6.68;;;5.07;;
46308;SDS011;32037;50.820;6.494;2024-01-15T00:16:07;10.95;;;5.07;;
46308;SDS011;32037;50.820;6.494;2024-01-15T00:18:35;6.13;;;4.20;;
46308;SDS011;32037;50.820;6.494;2024-01-15T00:21:04;14.70;;;6.05;;
46308;SDS011;32037;50.820;6.494;2024-01-15T00:23:32;9.02;;;3.95;;
46308;SDS011;32037;50.820;6.494;2024-01-15T00:26:00;7.10;;;4.68;;
46308;SDS011;32037;50.820;6.494;2024-01-15T00:28:28;10.50;;;4.65;;
46308;SDS011;32037;50.820;6.494;2024-01-15T00:30:56;9.48;;;5.30;;
46308;SDS011;32037;50.820;6.494;2024-01-15T00:33:26;7.90;;;4.90;;
46308;SDS011;32037;50.820;6.494;2024-01-15T00:35:54;8.32;;;5.00;;
46308;SDS011;32037;50.820;6.494;2024-01-15T00:38:22;6.32;;;4.40;;
46308;SDS011;32037;50.820;6.494;2024-01-15T00:40:50;8.73;;;4.75;;
46308;SDS011;32037;50.820;6.494;2024-01-15T00:43:19;9.88;;;5.30;;
46308;SDS011;32037;50.820;6.494;2024-01-15T00:45:47;6.90;;;4.57;;
46308;SDS011;32037;50.820;6.494;2024-01-15T00:48:16;6.43;;;3.80;;
46308;SDS011;32037;50.820;6.494;2024-01-15T00:50:46;12.80;;;5.32;;
46308;SDS011;32037;50.820;6.494;2024-01-15T00:53:14;7.90;;;6.00;;
46308;SDS011;32037;50.820;6.494;2024-01-15T00:55:42;5.78;;;4.03;;
46308;SDS011;32037;50.820;6.494;2024-01-15T00:58:10;12.13;;;5.95;;
46308;SDS011;32037;50.820;6.494;2024-01-15T01:00:38;8.27;;;5.05;;
46308;SDS011;32037;50.820;6.494;2024-01-15T01:03:07;8.20;;;4.80;;
46308;SDS011;32037;50.820;6.494;2024-01-15T01:05:36;9.38;;;4.95;;
46308;SDS011;32037;50.820;6.494;2024-01-15T01:08:06;6.93;;;5.07;;
46308;SDS011;32037;50.820;6.494;2024-01-15T01:10:34;8.80;;;5.30;;
46308;SDS011;32037;50.820;6.494;2024-01-15T01:13:03;8.15;;;5.75;;
46308;SDS011;32037;50.820;6.494;2024-01-15T01:15:31;9.10;;;5.20;;
46308;SDS011;32037;50.820;6.494;2024-01-15T01:17:59;7.13;;;4.60;;
46308;SDS011;32037;50.820;6.494;2024-01-15T01:20:27;7.00;;;4.38;;
46308;SDS011;32037;50.820;6.494;2024-01-15T01:22:56;8.80;;;4.88;;
46308;SDS011;32037;50.820;6.494;2024-01-15T01:25:26;9.82;;;5.93;;
46308;SDS011;32037;50.820;6.494;2024-01-15T01:27:54;8.88;;;4.90;;
46308;SDS011;32037;50.820;6.494;2024-01-15T01:30:23;10.35;;;5.40;;
46308;SDS011;32037;50.820;6.494;2024-01-15T01:32:51;7.40;;;4.18;;
46308;SDS011;32037;50.820;6.494;2024-01-15T01:35:19;9.10;;;4.85;;
46308;SDS011;32037;50.820;6.494;2024-01-15T01:37:47;9.57;;;5.13;;
46308;SDS011;32037;50.820;6.494;2024-01-15T01:40:15;8.65;;;4.97;;
46308;SDS011;32037;50.820;6.494;2024-01-15T01:42:45;8.90;;;5.50;;
46308;SDS011;32037;50.820;6.494;2024-01-15T01:45:14;9.38;;;5.13;;
46308;SDS011;32037;50.820;6.494;2024-01-15T01:47:42;11.30;;;5.40;;
46308;SDS011;32037;50.820;6.494;2024-01-15T01:50:10;10.73;;;5.65;;
46308;SDS011;32037;50.820;6.494;2024-01-15T01:52:40;11.18;;;6.38;;
46308;SDS011;32037;50.820;6.494;2024-01-15T01:55:08;6.93;;;4.05;;
46308;SDS011;32037;50.820;6.494;2024-01-15T01:57:39;9.02;;;4.68;;
46308;SDS011;32037;50.820;6.494;2024-01-15T02:00:10;7.57;;;5.38;;
46308;SDS011;32037;50.820;6.494;2024-01-15T02:02:39;12.40;;;7.07;;
46308;SDS011;32037;50.820;6.494;2024-01-15T02:05:07;12.10;;;4.28;;
46308;SDS011;32037;50.820;6.494;2024-01-15T02:07:36;9.45;;;6.07;;
46308;SDS011;32037;50.820;6.494;2024-01-15T02:10:04;12.60;;;6.78;;
46308;SDS011;32037;50.820;6.494;2024-01-15T02:12:33;8.35;;;5.38;;
46308;SDS011;32037;50.820;6.494;2024-01-15T02:15:02;9.77;;;5.70;;
46308;SDS011;32037;50.820;6.494;2024-01-15T02:17:31;6.53;;;4.53;;
46308;SDS011;32037;50.820;6.494;2024-01-15T02:19:59;9.25;;;4.40;;
46308;SDS011;32037;50.820;6.494;2024-01-15T02:22:28;7.75;;;5.28;;
46308;SDS011;32037;50.820;6.494;2024-01-15T02:24:57;10.32;;;6.38;;
46308;SDS011;32037;50.820;6.494;2024-01-15T02:27:25;8.90;;;4.82;;
46308;SDS011;32037;50.820;6.494;2024-01-15T02:29:54;6.10;;;3.95;;
46308;SDS011;32037;50.820;6.494;2024-01-15T02:32:22;8.27;;;5.90;;
46308;SDS011;32037;50.820;6.494;2024-01-15T02:34:50;8.88;;;4.72;;
46308;SDS011;32037;50.820;6.494;2024-01-15T02:37:19;11.13;;;5.60;;
46308;SDS011;32037;50.820;6.494;2024-01-15T02:39:47;9.95;;;5.05;;
46308;SDS011;32037;50.820;6.494;2024-01-15T02:42:16;6.57;;;4.28;;
46308;SDS011;32037;50.820;6.494;2024-01-15T02:44:44;10.32;;;6.82;;
46308;SDS011;32037;50.820;6.494;2024-01-15T02:47:13;8.50;;;4.95;;
46308;SDS011;32037;50.820;6.494;2024-01-15T02:49:41;8.30;;;4.93;;
46308;SDS011;32037;50.820;6.494;2024-01-15T02:52:09;11.25;;;6.20;;
46308;SDS011;32037;50.820;6.494;2024-01-15T02:54:37;7.65;;;4.70;;
46308;SDS011;32037;50.820;6.494;2024-01-15T02:57:05;8.73;;;5.68;;
46308;SDS011;32037;50.820;6.494;2024-01-15T02:59:34;9.65;;;6.35;;
46308;SDS011;32037;50.820;6.494;2024-01-15T03:02:03;8.20;;;4.90;;
46308;SDS011;32037;50.820;6.494;2024-01-15T03:04:31;8.55;;;4.82;;
46308;SDS011;32037;50.820;6.494;2024-01-15T03:06:59;11.20;;;6.80;;
46308;SDS011;32037;50.820;6.494;2024-01-15T03:09:27;8.70;;;4.80;;
46308;SDS011;32037;50.820;6.494;2024-01-15T03:11:55;9.15;;;5.10;;
46308;SDS011;32037;50.820;6.494;2024-01-15T03:14:24;7.32;;;4.50;;
46308;SDS011;32037;50.820;6.494;2024-01-15T03:16:54;8.05;;;5.50;;
46308;SDS011;32037;50.820;6.494;2024-01-15T03:19:22;9.88;;;4.60;;
46308;SDS011;32037;50.820;6.494;2024-01-15T03:21:50;7.80;;;4.97;;
46308;SDS011;32037;50.820;6.494;2024-01-15T03:24:18;6.68;;;4.90;;
46308;SDS011;32037;50.820;6.494;2024-01-15T03:26:46;9.32;;;5.32;;
46308;SDS011;32037;50.820;6.494;2024-01-15T03:29:14;8.05;;;4.63;;
46308;SDS011;32037;50.820;6.494;2024-01-15T03:31:42;13.02;;;7.15;;
46308;SDS011;32037;50.820;6.494;2024-01-15T03:34:12;9.60;;;5.55;;
46308;SDS011;32037;50.820;6.494;2024-01-15T03:36:40;11.68;;;6.03;;
46308;SDS011;32037;50.820;6.494;2024-01-15T03:39:09;9.15;;;5.20;;
46308;SDS011;32037;50.820;6.494;2024-01-15T03:41:38;7.95;;;5.38;;
46308;SDS011;32037;50.820;6.494;2024-01-15T03:44:06;8.45;;;5.22;;
46308;SDS011;32037;50.820;6.494;2024-01-15T03:46:34;7.03;;;5.20;;
46308;SDS011;32037;50.820;6.494;2024-01-15T03:49:02;7.00;;;4.93;;
46308;SDS011;32037;50.820;6.494;2024-01-15T03:51:32;8.65;;;4.82;;
46308;SDS011;32037;50.820;6.494;2024-01-15T03:54:00;8.70;;;5.30;;
46308;SDS011;32037;50.820;6.494;2024-01-15T03:56:30;7.35;;;4.80;;
46308;SDS011;32037;50.820;6.494;2024-01-15T03:58:59;6.55;;;4.88;;
46308;SDS011;32037;50.820;6.494;2024-01-15T04:01:27;8.32;;;5.45;;
46308;SDS011;32037;50.820;6.494;2024-01-15T04:03:55;8.90;;;4.95;;
46308;SDS011;32037;50.820;6.494;2024-01-15T04:06:24;7.60;;;4.97;;
46308;SDS011;32037;50.820;6.494;2024-01-15T04:08:53;8.18;;;5.03;;
46308;SDS011;32037;50.820;6.494;2024-01-15T04:11:22;8.20;;;4.65;;
46308;SDS011;32037;50.820;6.494;2024-01-15T04:13:50;7.70;;;4.82;;
46308;SDS011;32037;50.820;6.494;2024-01-15T04:16:18;9.32;;;4.85;;
46308;SDS011;32037;50.820;6.494;2024-01-15T04:18:46;6.95;;;4.45;;
46308;SDS011;32037;50.820;6.494;2024-01-15T04:21:16;8.90;;;5.20;;
46308;SDS011;32037;50.820;6.494;2024-01-15T04:23:44;7.05;;;4.68;;
46308;SDS011;32037;50.820;6.494;2024-01-15T04:26:14;7.20;;;4.28;;
46308;SDS011;32037;50.820;6.494;2024-01-15T04:28:42;5.28;;;3.90;;
46308;SDS011;32037;50.820;6.494;2024-01-15T04:31:11;7.45;;;4.78;;
46308;SDS011;32037;50.820;6.494;2024-01-15T04:33:48;10.10;;;5.45;;
46308;SDS011;32037;50.820;6.494;2024-01-15T04:36:17;8.80;;;4.78;;
46308;SDS011;32037;50.820;6.494;2024-01-15T04:38:45;7.05;;;4.90;;
46308;SDS011;32037;50.820;6.494;2024-01-15T04:41:15;8.32;;;4.85;;
46308;SDS011;32037;50.820;6.494;2024-01-15T04:43:43;9.75;;;5.60;;
46308;SDS011;32037;50.820;6.494;2024-01-15T04:46:12;7.70;;;3.95;;
46308;SDS011;32037;50.820;6.494;2024-01-15T04:48:40;8.90;;;4.57;;
46308;SDS011;32037;50.820;6.494;2024-01-15T04:51:08;8.32;;;4.70;;
46308;SDS011;32037;50.820;6.494;2024-01-15T04:53:37;7.65;;;4.43;;
46308;SDS011;32037;50.820;6.494;2024-01-15T04:56:05;7.28;;;4.70;;
46308;SDS011;32037;50.820;6.494;2024-01-15T04:58:34;6.97;;;4.82;;
46308;SDS011;32037;50.820;6.494;2024-01-15T05:01:02;7.88;;;4.70;;
46308;SDS011;32037;50.820;6.494;2024-01-15T05:03:31;6.35;;;4.20;;
46308;SDS011;32037;50.820;6.494;2024-01-15T05:05:59;6.25;;;4.15;;
46308;SDS011;32037;50.820;6.494;2024-01-15T05:08:27;7.70;;;4.20;;
46308;SDS011;32037;50.820;6.494;2024-01-15T05:10:56;6.10;;;4.30;;
46308;SDS011;32037;50.820;6.494;2024-01-15T05:13:24;5.75;;;4.07;;
46308;SDS011;32037;50.820;6.494;2024-01-15T05:15:53;7.07;;;4.68;;
46308;SDS011;32037;50.820;6.494;2024-01-15T05:18:21;8.25;;;4.43;;
46308;SDS011;32037;50.820;6.494;2024-01-15T05:20:50;8.05;;;4.78;;
46308;SDS011;32037;50.820;6.494;2024-01-15T05:23:19;7.68;;;4.82;;
46308;SDS011;32037;50.820;6.494;2024-01-15T05:25:47;6.57;;;4.45;;
46308;SDS011;32037;50.820;6.494;2024-01-15T05:28:15;8.98;;;4.95;;
46308;SDS011;32037;50.820;6.494;2024-01-15T05:30:43;10.27;;;5.03;;
46308;SDS011;32037;50.820;6.494;2024-01-15T05:33:13;6.40;;;4.25;;
46308;SDS011;32037;50.820;6.494;2024-01-15T05:35:41;6.18;;;4.78;;
46308;SDS011;32037;50.820;6.494;2024-01-15T05:38:10;10.32;;;6.28;;
46308;SDS011;32037;50.820;6.494;2024-01-15T05:40:38;8.25;;;4.80;;
46308;SDS011;32037;50.820;6.494;2024-01-15T05:43:06;7.22;;;4.80;;
46308;SDS011;32037;50.820;6.494;2024-01-15T05:45:34;6.82;;;4.13;;
46308;SDS011;32037;50.820;6.494;2024-01-15T05:48:03;7.38;;;4.50;;
46308;SDS011;32037;50.820;6.494;2024-01-15T05:50:32;7.10;;;5.35;;
46308;SDS011;32037;50.820;6.494;2024-01-15T05:53:01;4.68;;;3.40;;
46308;SDS011;32037;50.820;6.494;2024-01-15T05:55:30;6.40;;;4.25;;
46308;SDS011;32037;50.820;6.494;2024-01-15T05:57:58;6.88;;;4.10;;
46308;SDS011;32037;50.820;6.494;2024-01-15T06:00:26;7.65;;;5.30;;
46308;SDS011;32037;50.820;6.494;2024-01-15T06:02:54;8.18;;;4.95;;
46308;SDS011;32037;50.820;6.494;2024-01-15T06:05:22;5.72;;;3.90;;
46308;SDS011;32037;50.820;6.494;2024-01-15T06:07:52;5.55;;;3.90;;
46308;SDS011;32037;50.820;6.494;2024-01-15T06:10:20;7.10;;;4.05;;
46308;SDS011;32037;50.820;6.494;2024-01-15T06:12:49;8.20;;;4.32;;
46308;SDS011;32037;50.820;6.494;2024-01-15T06:15:17;8.85;;;5.22;;
46308;SDS011;32037;50.820;6.494;2024-01-15T06:17:45;5.93;;;4.10;;
46308;SDS011;32037;50.820;6.494;2024-01-15T06:20:13;5.68;;;3.13;;
46308;SDS011;32037;50.820;6.494;2024-01-15T06:22:42;4.70;;;3.65;;
46308;SDS011;32037;50.820;6.494;2024-01-15T06:25:11;4.97;;;3.65;;
46308;SDS011;32037;50.820;6.494;2024-01-15T06:27:39;6.00;;;3.28;;
46308;SDS011;32037;50.820;6.494;2024-01-15T06:30:08;4.40;;;3.30;;
46308;SDS011;32037;50.820;6.494;2024-01-15T06:32:37;5.93;;;3.78;;
46308;SDS011;32037;50.820;6.494;2024-01-15T06:35:05;7.10;;;4.65;;
46308;SDS011;32037;50.820;6.494;2024-01-15T06:37:34;8.23;;;5.50;;
46308;SDS011;32037;50.820;6.494;2024-01-15T06:40:03;6.90;;;4.20;;
46308;SDS011;32037;50.820;6.494;2024-01-15T06:42:34;6.38;;;4.53;;
46308;SDS011;32037;50.820;6.494;2024-01-15T06:45:02;5.43;;;3.90;;
46308;SDS011;32037;50.820;6.494;2024-01-15T06:47:31;5.57;;;4.55;;
46308;SDS011;32037;50.820;6.494;2024-01-15T06:49:59;7.07;;;4.22;;
46308;SDS011;32037;50.820;6.494;2024-01-15T06:52:28;6.45;;;3.70;;
46308;SDS011;32037;50.820;6.494;2024-01-15T06:54:56;6.00;;;3.85;;
46308;SDS011;32037;50.820;6.494;2024-01-15T06:57:24;5.93;;;4.05;;
46308;SDS011;32037;50.820;6.494;2024-01-15T06:59:53;8.10;;;4.35;;
46308;SDS011;32037;50.820;6.494;2024-01-15T07:02:22;7.25;;;3.88;;
46308;SDS011;32037;50.820;6.494;2024-01-15T07:04:50;7.72;;;4.15;;
46308;SDS011;32037;50.820;6.494;2024-01-15T07:07:18;8.35;;;4.75;;
46308;SDS011;32037;50.820;6.494;2024-01-15T07:09:46;6.10;;;4.53;;
46308;SDS011;32037;50.820;6.494;2024-01-15T07:12:14;6.50;;;3.75;;
46308;SDS011;32037;50.820;6.494;2024-01-15T07:14:42;5.47;;;3.55;;
46308;SDS011;32037;50.820;6.494;2024-01-15T07:17:12;9.77;;;4.97;;
46308;SDS011;32037;50.820;6.494;2024-01-15T07:19:40;9.13;;;4.22;;
46308;SDS011;32037;50.820;6.494;2024-01-15T07:22:08;6.47;;;4.80;;
46308;SDS011;32037;50.820;6.494;2024-01-15T07:24:36;6.88;;;4.60;;
46308;SDS011;32037;50.820;6.494;2024-01-15T07:27:05;5.13;;;4.20;;
46308;SDS011;32037;50.820;6.494;2024-01-15T07:29:33;9.38;;;5.15;;
46308;SDS011;32037;50.820;6.494;2024-01-15T07:32:04;8.38;;;4.97;;
46308;SDS011;32037;50.820;6.494;2024-01-15T07:34:36;6.70;;;3.70;;
46308;SDS011;32037;50.820;6.494;2024-01-15T07:37:07;6.45;;;4.07;;
46308;SDS011;32037;50.820;6.494;2024-01-15T07:39:35;4.95;;;3.65;;
46308;SDS011;32037;50.820;6.494;2024-01-15T07:42:03;8.77;;;4.47;;
46308;SDS011;32037;50.820;6.494;2024-01-15T07:44:32;6.28;;;4.53;;
46308;SDS011;32037;50.820;6.494;2024-01-15T07:47:00;8.82;;;5.38;;
46308;SDS011;32037;50.820;6.494;2024-01-15T07:49:28;6.90;;;4.30;;
46308;SDS011;32037;50.820;6.494;2024-01-15T07:51:58;7.10;;;4.00;;
46308;SDS011;32037;50.820;6.494;2024-01-15T07:54:26;5.70;;;4.95;;
46308;SDS011;32037;50.820;6.494;2024-01-15T07:56:55;6.85;;;4.15;;
46308;SDS011;32037;50.820;6.494;2024-01-15T07:59:24;4.78;;;3.70;;
46308;SDS011;32037;50.820;6.494;2024-01-15T08:01:53;6.15;;;4.22;;
46308;SDS011;32037;50.820;6.494;2024-01-15T08:04:21;8.18;;;4.40;;
46308;SDS011;32037;50.820;6.494;2024-01-15T08:06:50;18.65;;;9.35;;
46308;SDS011;32037;50.820;6.494;2024-01-15T08:09:19;17.35;;;10.77;;
46308;SDS011;32037;50.820;6.494;2024-01-15T08:11:48;18.25;;;11.15;;
46308;SDS011;32037;50.820;6.494;2024-01-15T08:14:17;20.30;;;12.77;;
46308;SDS011;32037;50.820;6.494;2024-01-15T08:16:48;26.42;;;12.45;;
46308;SDS011;32037;50.820;6.494;2024-01-15T08:19:17;24.25;;;11.43;;
46308;SDS011;32037;50.820;6.494;2024-01-15T08:21:48;19.50;;;11.48;;
46308;SDS011;32037;50.820;6.494;2024-01-15T08:24:16;21.20;;;10.30;;
46308;SDS011;32037;50.820;6.494;2024-01-15T08:26:46;15.05;;;10.45;;
46308;SDS011;32037;50.820;6.494;2024-01-15T08:29:14;13.68;;;8.60;;
46308;SDS011;32037;50.820;6.494;2024-01-15T08:31:42;11.48;;;8.15;;
46308;SDS011;32037;50.820;6.494;2024-01-15T08:34:11;17.08;;;9.15;;
46308;SDS011;32037;50.820;6.494;2024-01-15T08:36:43;12.43;;;7.85;;
46308;SDS011;32037;50.820;6.494;2024-01-15T08:39:12;18.10;;;9.32;;
46308;SDS011;32037;50.820;6.494;2024-01-15T08:41:40;12.65;;;9.40;;
46308;SDS011;32037;50.820;6.494;2024-01-15T08:44:11;12.23;;;8.50;;
46308;SDS011;32037;50.820;6.494;2024-01-15T08:46:40;12.23;;;7.85;;
46308;SDS011;32037;50.820;6.494;2024-01-15T08:49:08;14.80;;;7.65;;
46308;SDS011;32037;50.820;6.494;2024-01-15T08:51:36;13.07;;;8.00;;
46308;SDS011;32037;50.820;6.494;2024-01-15T08:54:05;10.82;;;7.72;;
46308;SDS011;32037;50.820;6.494;2024-01-15T08:56:35;13.52;;;7.65;;
46308;SDS011;32037;50.820;6.494;2024-01-15T08:59:06;14.02;;;7.72;;
46308;SDS011;32037;50.820;6.494;2024-01-15T09:01:36;10.40;;;6.30;;
46308;SDS011;32037;50.820;6.494;2024-01-15T09:04:06;10.38;;;6.55;;
46308;SDS011;32037;50.820;6.494;2024-01-15T09:06:35;10.95;;;7.18;;
46308;SDS011;32037;50.820;6.494;2024-01-15T09:09:03;7.57;;;5.70;;
46308;SDS011;32037;50.820;6.494;2024-01-15T09:11:32;9.95;;;6.68;;
46308;SDS011;32037;50.820;6.494;2024-01-15T09:14:01;10.35;;;7.30;;
46308;SDS011;32037;50.820;6.494;2024-01-15T09:16:30;12.25;;;7.43;;
46308;SDS011;32037;50.820;6.494;2024-01-15T09:19:01;13.90;;;7.20;;
46308;SDS011;32037;50.820;6.494;2024-01-15T09:21:30;9.65;;;6.38;;
46308;SDS011;32037;50.820;6.494;2024-01-15T09:23:58;10.40;;;8.00;;
46308;SDS011;32037;50.820;6.494;2024-01-15T09:26:26;11.05;;;7.32;;
46308;SDS011;32037;50.820;6.494;2024-01-15T09:28:57;8.93;;;6.03;;
46308;SDS011;32037;50.820;6.494;2024-01-15T09:31:25;9.57;;;6.63;;
46308;SDS011;32037;50.820;6.494;2024-01-15T09:33:54;8.63;;;5.88;;
46308;SDS011;32037;50.820;6.494;2024-01-15T09:36:26;10.45;;;6.20;;
46308;SDS011;32037;50.820;6.494;2024-01-15T09:38:54;8.10;;;6.05;;
46308;SDS011;32037;50.820;6.494;2024-01-15T09:41:23;9.05;;;5.90;;
46308;SDS011;32037;50.820;6.494;2024-01-15T09:43:52;9.23;;;6.03;;
46308;SDS011;32037;50.820;6.494;2024-01-15T09:46:20;9.38;;;5.60;;
46308;SDS011;32037;50.820;6.494;2024-01-15T09:48:49;9.13;;;6.40;;
46308;SDS011;32037;50.820;6.494;2024-01-15T09:51:17;8.43;;;5.60;;
46308;SDS011;32037;50.820;6.494;2024-01-15T09:53:48;9.18;;;6.10;;
46308;SDS011;32037;50.820;6.494;2024-01-15T09:56:18;8.00;;;6.25;;
46308;SDS011;32037;50.820;6.494;2024-01-15T09:58:52;9.45;;;5.65;;
46308;SDS011;32037;50.820;6.494;2024-01-15T10:01:23;8.75;;;5.07;;
46308;SDS011;32037;50.820;6.494;2024-01-15T10:03:53;7.40;;;5.40;;
46308;SDS011;32037;50.820;6.494;2024-01-15T10:06:22;11.25;;;5.75;;
46308;SDS011;32037;50.820;6.494;2024-01-15T10:08:52;9.02;;;4.60;;
46308;SDS011;32037;50.820;6.494;2024-01-15T10:11:24;7.18;;;5.13;;
46308;SDS011;32037;50.820;6.494;2024-01-15T10:13:53;7.18;;;5.53;;
46308;SDS011;32037;50.820;6.494;2024-01-15T10:16:23;8.25;;;5.45;;
46308;SDS011;32037;50.820;6.494;2024-01-15T10:18:53;8.80;;;5.05;;
46308;SDS011;32037;50.820;6.494;2024-01-15T10:21:22;5.70;;;4.38;;
46308;SDS011;32037;50.820;6.494;2024-01-15T10:23:50;7.47;;;4.82;;
46308;SDS011;32037;50.820;6.494;2024-01-15T10:26:24;5.60;;;4.53;;
46308;SDS011;32037;50.820;6.494;2024-01-15T10:28:52;8.23;;;5.22;;
46308;SDS011;32037;50.820;6.494;2024-01-15T10:31:21;5.32;;;4.82;;
46308;SDS011;32037;50.820;6.494;2024-01-15T10:33:54;6.95;;;4.50;;
46308;SDS011;32037;50.820;6.494;2024-01-15T10:36:42;8.45;;;4.85;;
46308;SDS011;32037;50.820;6.494;2024-01-15T10:39:19;10.27;;;5.57;;
46308;SDS011;32037;50.820;6.494;2024-01-15T10:41:48;6.90;;;4.82;;
46308;SDS011;32037;50.820;6.494;2024-01-15T10:44:17;6.82;;;4.75;;
46308;SDS011;32037;50.820;6.494;2024-01-15T10:46:46;7.80;;;5.30;;
46308;SDS011;32037;50.820;6.494;2024-01-15T10:49:15;5.10;;;4.25;;
46308;SDS011;32037;50.820;6.494;2024-01-15T10:51:46;5.25;;;4.40;;
46308;SDS011;32037;50.820;6.494;2024-01-15T10:54:16;5.68;;;4.25;;
46308;SDS011;32037;50.820;6.494;2024-01-15T10:56:46;6.85;;;3.92;;
46308;SDS011;32037;50.820;6.494;2024-01-15T10:59:15;6.50;;;4.97;;
46308;SDS011;32037;50.820;6.494;2024-01-15T11:01:44;5.97;;;3.97;;
46308;SDS011;32037;50.820;6.494;2024-01-15T11:04:13;5.60;;;3.63;;
46308;SDS011;32037;50.820;6.494;2024-01-15T11:06:45;7.10;;;4.53;;
46308;SDS011;32037;50.820;6.494;2024-01-15T11:09:14;6.68;;;4.20;;
46308;SDS011;32037;50.820;6.494;2024-01-15T11:11:44;5.80;;;4.25;;
46308;SDS011;32037;50.820;6.494;2024-01-15T11:14:34;5.18;;;3.95;;
46308;SDS011;32037;50.820;6.494;2024-01-15T11:17:03;5.65;;;4.05;;
46308;SDS011;32037;50.820;6.494;2024-01-15T11:19:35;5.90;;;4.22;;
46308;SDS011;32037;50.820;6.494;2024-01-15T11:22:08;5.75;;;4.57;;
46308;SDS011;32037;50.820;6.494;2024-01-15T11:24:38;5.28;;;3.83;;
46308;SDS011;32037;50.820;6.494;2024-01-15T11:27:12;6.82;;;4.25;;
46308;SDS011;32037;50.820;6.494;2024-01-15T11:29:40;5.57;;;4.15;;
46308;SDS011;32037;50.820;6.494;2024-01-15T11:32:11;5.30;;;3.83;;
46308;SDS011;32037;50.820;6.494;2024-01-15T11:34:58;5.40;;;3.90;;
46308;SDS011;32037;50.820;6.494;2024-01-15T11:37:56;5.55;;;3.78;;
46308;SDS011;32037;50.820;6.494;2024-01-15T11:40:38;9.57;;;4.28;;
46308;SDS011;32037;50.820;6.494;2024-01-15T11:43:10;5.60;;;3.70;;
46308;SDS011;32037;50.820;6.494;2024-01-15T11:45:51;4.70;;;3.28;;
46308;SDS011;32037;50.820;6.494;2024-01-15T11:51:33;5.40;;;3.33;;
46308;SDS011;32037;50.820;6.494;2024-01-15T11:54:03;5.00;;;3.60;;
46308;SDS011;32037;50.820;6.494;2024-01-15T11:56:38;4.85;;;3.63;;
46308;SDS011;32037;50.820;6.494;2024-01-15T11:59:10;5.32;;;3.80;;
46308;SDS011;32037;50.820;6.494;2024-01-15T12:01:42;5.30;;;3.70;;
46308;SDS011;32037;50.820;6.494;2024-01-15T12:04:10;4.28;;;3.20;;
46308;SDS011;32037;50.820;6.494;2024-01-15T12:06:42;5.75;;;3.33;;
46308;SDS011;32037;50.820;6.494;2024-01-15T12:09:11;4.32;;;3.10;;
46308;SDS011;32037;50.820;6.494;2024-01-15T12:11:40;7.05;;;3.38;;
46308;SDS011;32037;50.820;6.494;2024-01-15T12:14:17;4.95;;;3.25;;
46308;SDS011;32037;50.820;6.494;2024-01-15T12:16:45;7.25;;;4.00;;
46308;SDS011;32037;50.820;6.494;2024-01-15T12:19:13;6.65;;;3.55;;
46308;SDS011;32037;50.820;6.494;2024-01-15T12:21:43;4.68;;;3.50;;
46308;SDS011;32037;50.820;6.494;2024-01-15T12:24:14;4.32;;;3.50;;
46308;SDS011;32037;50.820;6.494;2024-01-15T12:26:44;7.13;;;3.67;;
46308;SDS011;32037;50.820;6.494;2024-01-15T12:29:12;4.85;;;3.17;;
46308;SDS011;32037;50.820;6.494;2024-01-15T12:31:42;5.20;;;3.50;;
46308;SDS011;32037;50.820;6.494;2024-01-15T12:34:10;10.05;;;4.82;;
46308;SDS011;32037;50.820;6.494;2024-01-15T12:36:39;6.70;;;3.70;;
46308;SDS011;32037;50.820;6.494;2024-01-15T12:39:11;10.93;;;3.40;;
46308;SDS011;32037;50.820;6.494;2024-01-15T12:41:44;6.70;;;3.20;;
46308;SDS011;32037;50.820;6.494;2024-01-15T12:44:13;4.32;;;3.10;;
46308;SDS011;32037;50.820;6.494;2024-01-15T12:46:43;9.68;;;4.18;;
46308;SDS011;32037;50.820;6.494;2024-01-15T12:49:12;9.68;;;3.88;;
46308;SDS011;32037;50.820;6.494;2024-01-15T12:51:41;3.95;;;3.08;;
46308;SDS011;32037;50.820;6.494;2024-01-15T12:54:09;7.00;;;3.35;;
46308;SDS011;32037;50.820;6.494;2024-01-15T12:56:38;8.30;;;3.45;;
46308;SDS011;32037;50.820;6.494;2024-01-15T12:59:07;8.40;;;3.50;;
46308;SDS011;32037;50.820;6.494;2024-01-15T13:01:35;5.00;;;2.70;;
46308;SDS011;32037;50.820;6.494;2024-01-15T13:04:05;6.82;;;3.28;;
46308;SDS011;32037;50.820;6.494;2024-01-15T13:06:38;5.90;;;3.20;;
46308;SDS011;32037;50.820;6.494;2024-01-15T13:09:15;4.50;;;2.63;;
46308;SDS011;32037;50.820;6.494;2024-01-15T13:11:44;5.18;;;2.97;;
46308;SDS011;32037;50.820;6.494;2024-01-15T13:14:33;5.55;;;2.65;;
46308;SDS011;32037;50.820;6.494;2024-01-15T13:17:20;4.50;;;2.63;;
46308;SDS011;32037;50.820;6.494;2024-01-15T13:20:27;4.65;;;3.15;;
46308;SDS011;32037;50.820;6.494;2024-01-15T13:22:55;3.60;;;2.35;;
46308;SDS011;32037;50.820;6.494;2024-01-15T13:25:24;4.70;;;2.72;;
46308;SDS011;32037;50.820;6.494;2024-01-15T13:28:06;4.60;;;3.03;;
46308;SDS011;32037;50.820;6.494;2024-01-15T13:30:35;4.20;;;2.35;;
46308;SDS011;32037;50.820;6.494;2024-01-15T13:33:04;4.60;;;2.90;;
46308;SDS011;32037;50.820;6.494;2024-01-15T13:35:34;3.92;;;3.15;;
46308;SDS011;32037;50.820;6.494;2024-01-15T13:38:06;5.45;;;2.78;;
46308;SDS011;32037;50.820;6.494;2024-01-15T13:40:38;2.90;;;2.33;;
46308;SDS011;32037;50.820;6.494;2024-01-15T13:43:21;6.32;;;2.78;;
46308;SDS011;32037;50.820;6.494;2024-01-15T13:46:08;2.97;;;2.28;;
46308;SDS011;32037;50.820;6.494;2024-01-15T13:48:46;4.55;;;2.20;;
46308;SDS011;32037;50.820;6.494;2024-01-15T13:51:21;3.78;;;2.30;;
46308;SDS011;32037;50.820;6.494;2024-01-15T13:54:25;2.95;;;1.90;;
46308;SDS011;32037;50.820;6.494;2024-01-15T14:01:13;3.22;;;2.10;;
46308;SDS011;32037;50.820;6.494;2024-01-15T14:06:43;3.38;;;2.28;;
46308;SDS011;32037;50.820;6.494;2024-01-15T14:09:26;2.80;;;2.13;;
46308;SDS011;32037;50.820;6.494;2024-01-15T14:12:00;5.45;;;2.17;;
46308;SDS011;32037;50.820;6.494;2024-01-15T14:15:07;3.60;;;2.20;;
46308;SDS011;32037;50.820;6.494;2024-01-15T14:18:24;3.70;;;2.30;;
46308;SDS011;32037;50.820;6.494;2024-01-15T14:21:19;4.32;;;2.20;;
46308;SDS011;32037;50.820;6.494;2024-01-15T14:24:05;4.35;;;2.13;;
46308;SDS011;32037;50.820;6.494;2024-01-15T14:27:34;4.13;;;1.98;;
46308;SDS011;32037;50.820;6.494;2024-01-15T14:30:30;3.75;;;2.28;;
46308;SDS011;32037;50.820;6.494;2024-01-15T14:37:47;2.55;;;1.85;;
46308;SDS011;32037;50.820;6.494;2024-01-15T14:42:26;2.50;;;1.80;;
46308;SDS011;32037;50.820;6.494;2024-01-15T14:44:55;2.90;;;2.10;;
46308;SDS011;32037;50.820;6.494;2024-01-15T14:47:25;4.15;;;1.58;;
46308;SDS011;32037;50.820;6.494;2024-01-15T14:49:55;4.05;;;1.75;;
46308;SDS011;32037;50.820;6.494;2024-01-15T14:52:24;3.17;;;1.90;;
46308;SDS011;32037;50.820;6.494;2024-01-15T14:54:55;4.63;;;2.47;;
46308;SDS011;32037;50.820;6.494;2024-01-15T14:57:28;5.65;;;2.22;;
46308;SDS011;32037;50.820;6.494;2024-01-15T14:59:57;6.60;;;2.90;;
46308;SDS011;32037;50.820;6.494;2024-01-15T15:02:27;2.75;;;1.60;;
46308;SDS011;32037;50.820;6.494;2024-01-15T15:05:00;3.00;;;2.47;;
46308;SDS011;32037;50.820;6.494;2024-01-15T15:07:30;3.45;;;2.50;;
46308;SDS011;32037;50.820;6.494;2024-01-15T15:09:58;3.35;;;1.85;;
46308;SDS011;32037;50.820;6.494;2024-01-15T15:12:28;3.65;;;2.00;;
46308;SDS011;32037;50.820;6.494;2024-01-15T15:14:56;3.53;;;1.90;;
46308;SDS011;32037;50.820;6.494;2024-01-15T15:17:35;2.33;;;1.92;;
46308;SDS011;32037;50.820;6.494;2024-01-15T15:20:05;2.35;;;1.90;;
46308;SDS011;32037;50.820;6.494;2024-01-15T15:22:35;4.03;;;2.03;;